Time;durP1;ratioP1;P1;durP2;ratioP2;P2;SDS_P1;SDS_P2;PMS_P1;PMS_P2;Temp;Humidity;BMP_temperature;BMP_pressure;BME280_temperature;BME280_humidity;BME280_pressure;Samples;Min_cycle;Max_cycle;Signal;HPM_P1;HPM_P2
2023/03/29 00:00:48;;;;;;;4.82;1.33;;;;;;;;;;4965349;28;92671;-83
2023/03/29 00:03:15;;;;;;;2.35;0.85;;;;;;;;;;4963785;28;93276;-84
2023/03/29 00:05:43;;;;;;;6.22;1.23;;;;;;;;;;4964575;28;94834;-85
2023/03/29 00:08:13;;;;;;;3.05;1.20;;;;;;;;;;4965821;28;96979;-84
2023/03/29 00:10:40;;;;;;;4.97;1.02;;;;;;;;;;4968945;28;94412;-84
2023/03/29 00:13:07;;;;;;;4.38;1.20;;;;;;;;;;4968119;28;92957;-85
2023/03/29 00:15:33;;;;;;;4.82;1.10;;;;;;;;;;4987530;28;92919;-84
2023/03/29 00:18:00;;;;;;;2.63;1.20;;;;;;;;;;4967227;28;92073;-84
2023/03/29 00:20:27;;;;;;;2.78;1.10;;;;;;;;;;4988829;28;93313;-84
2023/03/29 00:22:54;;;;;;;3.30;1.30;;;;;;;;;;4968210;28;92654;-84
2023/03/29 00:25:21;;;;;;;4.03;1.63;;;;;;;;;;4986089;28;92740;-85
2023/03/29 00:27:47;;;;;;;3.78;1.30;;;;;;;;;;4968447;28;92494;-85
2023/03/29 00:30:14;;;;;;;4.05;1.30;;;;;;;;;;4967436;28;95168;-86
2023/03/29 00:32:41;;;;;;;4.38;1.52;;;;;;;;;;4968873;28;93424;-85
2023/03/29 00:35:08;;;;;;;3.92;1.20;;;;;;;;;;4968097;28;95143;-86
2023/03/29 00:37:35;;;;;;;2.45;1.15;;;;;;;;;;4997340;28;92227;-84
2023/03/29 00:40:06;;;;;;;2.35;1.25;;;;;;;;;;4975504;28;92585;-85
2023/03/29 00:42:32;;;;;;;4.53;1.55;;;;;;;;;;4952640;28;94195;-85
2023/03/29 00:45:02;;;;;;;3.22;1.20;;;;;;;;;;4962838;28;92404;-85
2023/03/29 00:47:38;;;;;;;4.25;1.58;;;;;;;;;;4962333;28;96026;-85
2023/03/29 00:50:16;;;;;;;3.15;1.30;;;;;;;;;;4969410;28;95675;-85
2023/03/29 00:52:50;;;;;;;4.07;1.17;;;;;;;;;;5000221;28;94030;-85
2023/03/29 00:55:18;;;;;;;3.05;1.33;;;;;;;;;;4947533;28;95566;-85
2023/03/29 00:57:45;;;;;;;3.70;1.40;;;;;;;;;;4954916;28;92465;-85
2023/03/29 01:00:13;;;;;;;;;;;;;;;;;;4956798;28;92580;-83
2023/03/29 01:02:41;;;;;;;4.43;1.33;;;;;;;;;;4978226;28;117243;-84
2023/03/29 01:05:10;;;;;;;4.07;1.30;;;;;;;;;;4951768;28;92056;-85
2023/03/29 01:07:40;;;;;;;3.22;1.38;;;;;;;;;;4949309;28;93450;-85
2023/03/29 01:10:08;;;;;;;3.00;1.20;;;;;;;;;;4949527;28;95437;-85
2023/03/29 01:12:41;;;;;;;3.70;1.30;;;;;;;;;;4948327;28;91966;-85
2023/03/29 01:15:12;;;;;;;3.03;1.38;;;;;;;;;;4958122;28;93863;-85
2023/03/29 01:17:49;;;;;;;4.00;1.30;;;;;;;;;;4959960;28;92587;-84
2023/03/29 01:20:21;;;;;;;3.63;1.40;;;;;;;;;;4977002;28;94711;-83
2023/03/29 01:22:50;;;;;;;2.67;1.20;;;;;;;;;;4942186;28;94789;-84
2023/03/29 01:25:26;;;;;;;2.95;1.27;;;;;;;;;;4976698;28;92643;-84
2023/03/29 01:27:56;;;;;;;3.20;1.30;;;;;;;;;;4944361;28;92445;-81
2023/03/29 01:30:30;;;;;;;2.58;1.30;;;;;;;;;;4943782;28;92689;-83
2023/03/29 01:32:57;;;;;;;2.17;1.20;;;;;;;;;;4943116;28;92417;-83
2023/03/29 01:35:37;;;;;;;4.72;1.38;;;;;;;;;;4981839;28;94908;-83
2023/03/29 01:38:27;;;;;;;3.25;1.40;;;;;;;;;;4952648;28;91778;-84
2023/03/29 01:40:53;;;;;;;3.80;1.42;;;;;;;;;;4950422;28;98752;-83
2023/03/29 01:43:29;;;;;;;2.92;1.33;;;;;;;;;;4967964;28;93609;-83
2023/03/29 01:45:56;;;;;;;3.72;1.40;;;;;;;;;;4961466;28;94758;-83
2023/03/29 01:48:28;;;;;;;2.95;1.20;;;;;;;;;;4965691;28;95238;-81
2023/03/29 01:50:57;;;;;;;2.67;1.20;;;;;;;;;;5002610;28;94658;-82
2023/03/29 01:53:35;;;;;;;4.05;1.50;;;;;;;;;;5000932;28;92356;-82
2023/03/29 01:56:20;;;;;;;3.15;1.27;;;;;;;;;;4989583;28;93162;-82
2023/03/29 01:58:51;;;;;;;3.35;1.40;;;;;;;;;;4980373;28;100279;-81
2023/03/29 02:01:20;;;;;;;3.17;1.70;;;;;;;;;;4964082;28;92668;-80
2023/03/29 02:03:48;;;;;;;3.72;1.30;;;;;;;;;;4977290;28;92921;-81
2023/03/29 02:06:19;;;;;;;4.97;1.33;;;;;;;;;;4971139;28;92386;-81
2023/03/29 02:08:46;;;;;;;4.05;1.67;;;;;;;;;;4968697;28;92350;-83
2023/03/29 02:11:13;;;;;;;3.40;1.40;;;;;;;;;;4955341;28;96469;-84
2023/03/29 02:13:39;;;;;;;3.38;1.30;;;;;;;;;;5005255;28;92264;-83
2023/03/29 02:16:13;;;;;;;5.03;1.60;;;;;;;;;;4978496;28;93009;-83
2023/03/29 02:18:42;;;;;;;4.78;1.40;;;;;;;;;;4976437;28;99818;-83
2023/03/29 02:21:10;;;;;;;3.83;1.40;;;;;;;;;;4978062;28;92348;-83
2023/03/29 02:23:45;;;;;;;5.72;1.50;;;;;;;;;;4965868;28;94805;-83
2023/03/29 02:26:13;;;;;;;5.03;1.60;;;;;;;;;;4977967;28;92215;-83
2023/03/29 02:28:39;;;;;;;;;;;;;;;;;;4993548;28;98948;-82
2023/03/29 02:31:09;;;;;;;3.90;1.50;;;;;;;;;;4978604;28;111081;-82
2023/03/29 02:33:44;;;;;;;3.78;1.33;;;;;;;;;;4980207;28;92627;-81
2023/03/29 02:36:19;;;;;;;4.43;1.38;;;;;;;;;;4976872;28;95095;-82
2023/03/29 02:38:46;;;;;;;5.03;1.48;;;;;;;;;;4980295;28;93376;-82
2023/03/29 02:41:15;;;;;;;3.85;1.70;;;;;;;;;;4979914;28;92473;-82
2023/03/29 02:43:42;;;;;;;3.25;1.35;;;;;;;;;;4982494;28;94659;-82
2023/03/29 02:46:09;;;;;;;2.60;1.30;;;;;;;;;;4979251;28;92539;-82
2023/03/29 02:48:36;;;;;;;4.72;1.30;;;;;;;;;;4979045;28;99728;-82
2023/03/29 02:51:07;;;;;;;3.33;1.33;;;;;;;;;;4973160;28;93656;-82
2023/03/29 02:53:41;;;;;;;3.97;1.40;;;;;;;;;;4979865;28;92223;-82
2023/03/29 02:56:07;;;;;;;;;;;;;;;;;;4962405;28;93319;-82
2023/03/29 02:58:35;;;;;;;4.60;1.60;;;;;;;;;;4979652;28;95599;-83
2023/03/29 03:01:04;;;;;;;5.15;1.50;;;;;;;;;;4978017;28;95318;-83
2023/03/29 03:03:30;;;;;;;4.65;1.88;;;;;;;;;;4996106;28;94214;-83
2023/03/29 03:06:00;;;;;;;4.03;1.60;;;;;;;;;;4979930;28;93116;-84
2023/03/29 03:08:28;;;;;;;3.72;1.50;;;;;;;;;;4977734;28;92524;-84
2023/03/29 03:10:55;;;;;;;3.95;1.30;;;;;;;;;;5012966;28;94646;-82
2023/03/29 03:13:21;;;;;;;4.97;1.50;;;;;;;;;;4980729;28;92847;-82
2023/03/29 03:15:48;;;;;;;6.03;1.63;;;;;;;;;;4978849;28;94580;-83
2023/03/29 03:18:15;;;;;;;3.40;1.50;;;;;;;;;;4995251;28;94927;-83
2023/03/29 03:20:45;;;;;;;3.45;1.30;;;;;;;;;;4968241;28;92434;-82
2023/03/29 03:23:12;;;;;;;5.32;1.60;;;;;;;;;;4979567;28;94907;-82
2023/03/29 03:25:38;;;;;;;4.72;1.60;;;;;;;;;;4993728;28;95098;-82
2023/03/29 03:28:05;;;;;;;5.15;1.90;;;;;;;;;;4982609;28;92129;-82
2023/03/29 03:30:32;;;;;;;4.88;1.70;;;;;;;;;;4978331;28;95396;-82
2023/03/29 03:33:18;;;;;;;3.72;1.40;;;;;;;;;;4979153;28;92518;-82
2023/03/29 03:36:05;;;;;;;4.28;1.45;;;;;;;;;;4967890;28;93276;-82
2023/03/29 03:38:34;;;;;;;5.65;1.42;;;;;;;;;;4994913;28;95651;-81
2023/03/29 03:41:01;;;;;;;3.85;1.20;;;;;;;;;;4979403;28;92598;-81
2023/03/29 03:43:31;;;;;;;7.47;1.60;;;;;;;;;;4973776;28;94656;-80
2023/03/29 03:45:58;;;;;;;5.70;1.88;;;;;;;;;;4978579;28;94575;-82
2023/03/29 03:48:25;;;;;;;5.97;1.50;;;;;;;;;;4978695;28;92398;-84
2023/03/29 03:51:05;;;;;;;;;;;;;;;;;;4981105;28;95299;-83
2023/03/29 03:53:33;;;;;;;9.30;1.55;;;;;;;;;;4981717;28;92716;-82
2023/03/29 03:56:12;;;;;;;6.47;1.80;;;;;;;;;;4978985;28;92047;-82
2023/03/29 03:58:57;;;;;;;6.00;1.65;;;;;;;;;;4976538;28;92982;-81
2023/03/29 04:01:26;;;;;;;5.72;1.80;;;;;;;;;;4992980;28;92320;-82
2023/03/29 04:04:10;;;;;;;5.70;1.70;;;;;;;;;;4978468;28;93784;-81
2023/03/29 04:06:37;;;;;;;11.65;2.30;;;;;;;;;;4977849;28;98173;-81
2023/03/29 04:09:30;;;;;;;6.53;1.83;;;;;;;;;;4959957;28;91934;-81
2023/03/29 04:12:11;;;;;;;4.95;1.52;;;;;;;;;;4978276;28;92262;-81
2023/03/29 04:14:39;;;;;;;5.63;1.40;;;;;;;;;;4980937;28;92873;-81
2023/03/29 04:17:09;;;;;;;5.53;1.70;;;;;;;;;;4977349;28;94653;-81
2023/03/29 04:19:57;;;;;;;4.00;1.50;;;;;;;;;;5011847;28;92284;-80
2023/03/29 04:22:25;;;;;;;3.75;1.55;;;;;;;;;;4978069;28;92624;-81
2023/03/29 04:24:52;;;;;;;6.40;1.65;;;;;;;;;;4978585;28;95041;-81
2023/03/29 04:27:25;;;;;;;4.60;1.80;;;;;;;;;;4980015;28;92888;-81
2023/03/29 04:29:51;;;;;;;3.25;1.45;;;;;;;;;;4966908;28;92181;-81
2023/03/29 04:32:26;;;;;;;6.63;1.83;;;;;;;;;;4994107;28;92917;-81
2023/03/29 04:35:03;;;;;;;4.03;1.48;;;;;;;;;;4995461;28;94549;-82
2023/03/29 04:37:31;;;;;;;4.28;1.70;;;;;;;;;;4981082;28;92602;-82
2023/03/29 04:40:03;;;;;;;6.28;1.80;;;;;;;;;;4986806;28;93067;-82
2023/03/29 04:42:42;;;;;;;5.50;1.50;;;;;;;;;;4975451;28;94867;-82
2023/03/29 04:45:09;;;;;;;5.97;1.45;;;;;;;;;;4984132;28;97247;-82
2023/03/29 04:48:00;;;;;;;9.85;1.60;;;;;;;;;;5010787;28;93707;-83
2023/03/29 04:50:28;;;;;;;4.97;1.50;;;;;;;;;;4976411;28;92670;-82
2023/03/29 04:52:55;;;;;;;4.15;1.50;;;;;;;;;;4978232;28;92397;-81
2023/03/29 04:55:21;;;;;;;3.78;1.60;;;;;;;;;;4976969;28;93287;-83
2023/03/29 04:57:57;;;;;;;6.90;1.77;;;;;;;;;;4971223;28;92415;-83
2023/03/29 05:00:34;;;;;;;4.60;1.50;;;;;;;;;;4976664;28;94237;-82
2023/03/29 05:03:23;;;;;;;5.38;1.48;;;;;;;;;;4977067;28;92679;-81
2023/03/29 05:06:12;;;;;;;5.25;1.67;;;;;;;;;;5003703;28;92742;-82
2023/03/29 05:08:39;;;;;;;5.50;1.83;;;;;;;;;;4975075;28;97364;-82
2023/03/29 05:11:20;;;;;;;5.03;1.70;;;;;;;;;;4976627;28;92506;-82
2023/03/29 05:13:46;;;;;;;4.25;1.80;;;;;;;;;;4977533;28;92341;-82
2023/03/29 05:16:14;;;;;;;3.13;1.45;;;;;;;;;;4977729;28;92541;-82
2023/03/29 05:18:41;;;;;;;3.97;1.40;;;;;;;;;;4993679;28;92167;-82
2023/03/29 05:21:08;;;;;;;8.35;1.60;;;;;;;;;;4979951;28;93397;-83
2023/03/29 05:23:37;;;;;;;7.18;1.80;;;;;;;;;;4993599;28;92333;-83
2023/03/29 05:26:08;;;;;;;6.03;1.60;;;;;;;;;;4978991;28;92073;-83
2023/03/29 05:28:36;;;;;;;5.85;1.80;;;;;;;;;;4977063;28;99317;-83
2023/03/29 05:31:04;;;;;;;4.20;1.67;;;;;;;;;;4977504;28;92441;-84
2023/03/29 05:33:34;;;;;;;3.85;1.70;;;;;;;;;;4992389;28;94900;-82
2023/03/29 05:36:06;;;;;;;4.03;1.80;;;;;;;;;;4977106;28;94682;-82
2023/03/29 05:38:37;;;;;;;4.28;1.45;;;;;;;;;;4977027;28;92889;-83
2023/03/29 05:41:05;;;;;;;4.95;1.48;;;;;;;;;;4966148;28;92451;-83
2023/03/29 05:43:32;;;;;;;5.00;1.50;;;;;;;;;;4981878;28;92426;-82
2023/03/29 05:45:59;;;;;;;3.60;1.48;;;;;;;;;;5010215;28;94779;-82
2023/03/29 05:48:28;;;;;;;4.25;1.50;;;;;;;;;;4976225;28;95310;-83
2023/03/29 05:50:55;;;;;;;4.93;1.98;;;;;;;;;;4977676;28;91887;-82
2023/03/29 05:53:22;;;;;;;4.45;1.67;;;;;;;;;;4972518;28;94347;-81
2023/03/29 05:55:50;;;;;;;3.83;1.63;;;;;;;;;;4974436;28;92671;-82
2023/03/29 05:58:19;;;;;;;2.90;1.52;;;;;;;;;;4974072;28;95084;-81
2023/03/29 06:00:48;;;;;;;4.40;1.60;;;;;;;;;;4993202;28;96936;-81
2023/03/29 06:03:33;;;;;;;5.35;1.85;;;;;;;;;;4992995;28;93084;-84
2023/03/29 06:06:02;;;;;;;7.05;1.63;;;;;;;;;;4998792;28;92473;-82
2023/03/29 06:08:31;;;;;;;5.53;1.70;;;;;;;;;;4974490;28;95373;-83
2023/03/29 06:11:16;;;;;;;3.80;1.40;;;;;;;;;;4982897;28;92479;-82
2023/03/29 06:14:01;;;;;;;5.70;1.60;;;;;;;;;;5008004;28;92591;-84
2023/03/29 06:16:28;;;;;;;5.18;1.65;;;;;;;;;;4979514;28;94430;-84
2023/03/29 06:18:55;;;;;;;5.80;1.63;;;;;;;;;;4981885;28;92208;-84
2023/03/29 06:21:22;;;;;;;5.80;1.75;;;;;;;;;;4976741;28;95152;-84
2023/03/29 06:23:49;;;;;;;4.75;1.70;;;;;;;;;;4990942;28;98402;-83
2023/03/29 06:26:16;;;;;;;;;;;;;;;;;;4976797;28;92825;-83
2023/03/29 06:28:43;;;;;;;6.15;1.85;;;;;;;;;;4998536;28;94704;-83
2023/03/29 06:31:09;;;;;;;4.22;1.70;;;;;;;;;;4980091;28;93413;-83
2023/03/29 06:33:39;;;;;;;4.82;1.73;;;;;;;;;;4979784;28;95064;-82
2023/03/29 06:36:33;;;;;;;5.32;1.92;;;;;;;;;;4963382;28;92371;-82
2023/03/29 06:39:02;;;;;;;3.45;1.60;;;;;;;;;;4979775;28;93284;-83
2023/03/29 06:41:48;;;;;;;5.60;1.60;;;;;;;;;;4980240;28;95016;-83
2023/03/29 06:44:48;;;;;;;7.05;1.80;;;;;;;;;;4957717;28;97565;-83
2023/03/29 06:47:17;;;;;;;10.10;1.85;;;;;;;;;;4979269;28;92847;-83
2023/03/29 06:49:44;;;;;;;8.35;1.80;;;;;;;;;;5005649;28;94815;-82
2023/03/29 06:52:46;;;;;;;4.65;1.75;;;;;;;;;;4980589;28;97081;-82
2023/03/29 06:55:14;;;;;;;6.00;1.80;;;;;;;;;;4974878;28;95092;-82
2023/03/29 06:57:41;;;;;;;6.80;1.90;;;;;;;;;;4986691;28;94881;-83
2023/03/29 07:00:18;;;;;;;5.45;1.77;;;;;;;;;;4969458;28;92374;-83
2023/03/29 07:03:19;;;;;;;7.25;1.77;;;;;;;;;;4942762;28;96970;-81
2023/03/29 07:05:50;;;;;;;5.07;1.77;;;;;;;;;;4975336;28;93156;-79
2023/03/29 07:08:19;;;;;;;14.70;2.05;;;;;;;;;;4972346;28;91407;-80
2023/03/29 07:10:58;;;;;;;9.32;1.95;;;;;;;;;;4979314;28;93569;-80
2023/03/29 07:13:27;;;;;;;5.13;1.85;;;;;;;;;;4983302;28;92423;-79
2023/03/29 07:15:56;;;;;;;7.18;1.60;;;;;;;;;;4977382;28;94896;-79
2023/03/29 07:18:41;;;;;;;7.47;1.70;;;;;;;;;;4980436;28;97373;-79
2023/03/29 07:21:13;;;;;;;12.68;2.00;;;;;;;;;;4963426;28;92496;-80
2023/03/29 07:23:39;;;;;;;7.28;1.63;;;;;;;;;;4994963;28;92412;-80
2023/03/29 07:26:06;;;;;;;4.22;1.70;;;;;;;;;;4978691;28;95354;-80
2023/03/29 07:28:33;;;;;;;5.00;1.60;;;;;;;;;;4979470;28;92233;-80
2023/03/29 07:31:06;;;;;;;8.63;1.90;;;;;;;;;;4977971;28;95154;-79
2023/03/29 07:33:39;;;;;;;10.38;1.90;;;;;;;;;;4977752;28;92730;-80
2023/03/29 07:36:07;;;;;;;5.07;1.60;;;;;;;;;;4981850;28;92505;-80
2023/03/29 07:38:35;;;;;;;5.05;1.80;;;;;;;;;;4977515;28;94888;-80
2023/03/29 07:41:08;;;;;;;3.67;1.50;;;;;;;;;;4976722;28;94549;-81
2023/03/29 07:43:50;;;;;;;7.43;1.70;;;;;;;;;;4978360;28;98238;-81
2023/03/29 07:46:21;;;;;;;7.25;1.65;;;;;;;;;;4989734;28;94970;-80
2023/03/29 07:48:48;;;;;;;4.32;1.50;;;;;;;;;;4991790;28;94419;-81
2023/03/29 07:51:15;;;;;;;4.68;1.50;;;;;;;;;;4983429;28;95340;-81
2023/03/29 07:53:52;;;;;;;3.85;1.55;;;;;;;;;;4979383;28;94973;-81
2023/03/29 07:56:34;;;;;;;5.68;1.75;;;;;;;;;;5002763;28;92506;-80
2023/03/29 07:59:17;;;;;;;3.83;1.42;;;;;;;;;;4977085;28;94892;-82
2023/03/29 08:01:50;;;;;;;4.97;1.48;;;;;;;;;;5002637;28;92297;-81
2023/03/29 08:04:24;;;;;;;4.50;1.98;;;;;;;;;;4981564;28;95134;-81
2023/03/29 08:07:09;;;;;;;5.93;1.70;;;;;;;;;;4969413;28;94746;-82
2023/03/29 08:09:56;;;;;;;4.03;1.60;;;;;;;;;;4968826;28;93219;-81
2023/03/29 08:12:36;;;;;;;5.28;1.63;;;;;;;;;;4993297;28;96705;-81
2023/03/29 08:15:05;;;;;;;5.47;1.73;;;;;;;;;;4985094;28;93166;-82
2023/03/29 08:17:33;;;;;;;6.25;1.50;;;;;;;;;;4972382;28;92771;-82
2023/03/29 08:20:01;;;;;;;4.00;1.80;;;;;;;;;;4958551;28;92475;-83
2023/03/29 08:22:28;;;;;;;3.47;1.38;;;;;;;;;;4970967;28;94696;-83
2023/03/29 08:25:25;;;;;;;7.82;2.17;;;;;;;;;;4973532;28;94365;-83
2023/03/29 08:27:53;;;;;;;4.95;1.88;;;;;;;;;;4989462;28;95418;-82
2023/03/29 08:30:29;;;;;;;6.43;1.75;;;;;;;;;;4994800;28;92882;-82
2023/03/29 08:32:57;;;;;;;5.63;1.80;;;;;;;;;;4971478;28;94856;-82
2023/03/29 08:35:23;;;;;;;4.70;1.77;;;;;;;;;;4972126;28;95261;-83
2023/03/29 08:38:02;;;;;;;6.72;2.05;;;;;;;;;;4999941;28;93620;-82
2023/03/29 08:40:29;;;;;;;4.15;1.80;;;;;;;;;;4984052;28;95036;-82
2023/03/29 08:43:15;;;;;;;3.90;1.73;;;;;;;;;;4965093;28;92867;-82
2023/03/29 08:46:17;;;;;;;;;;;;;;;;;;4938401;28;92215;-82
2023/03/29 08:48:48;;;;;;;5.72;2.10;;;;;;;;;;4955405;28;95716;-82
2023/03/29 08:51:21;;;;;;;4.93;1.85;;;;;;;;;;5007644;28;91609;-81
2023/03/29 08:53:54;;;;;;;4.78;2.22;;;;;;;;;;4974755;28;94008;-81
2023/03/29 08:56:30;;;;;;;4.57;2.15;;;;;;;;;;4973321;28;94997;-81
2023/03/29 08:59:26;;;;;;;4.93;2.40;;;;;;;;;;5008819;28;94681;-82
2023/03/29 09:01:55;;;;;;;5.68;2.40;;;;;;;;;;4993465;28;97169;-81
2023/03/29 09:04:25;;;;;;;5.55;2.40;;;;;;;;;;4977293;28;92699;-81
2023/03/29 09:07:27;;;;;;;5.57;2.30;;;;;;;;;;4956162;28;92884;-81
2023/03/29 09:09:55;;;;;;;5.97;2.17;;;;;;;;;;4974559;28;92908;-81
2023/03/29 09:12:45;;;;;;;6.53;2.30;;;;;;;;;;4976325;28;92313;-82
2023/03/29 09:15:14;;;;;;;4.78;2.20;;;;;;;;;;4978720;28;92541;-83
2023/03/29 09:18:05;;;;;;;7.88;2.40;;;;;;;;;;4977537;28;92144;-84
2023/03/29 09:20:37;;;;;;;5.22;2.22;;;;;;;;;;4976187;28;92265;-85
2023/03/29 09:23:16;;;;;;;5.80;2.10;;;;;;;;;;4970773;28;95403;-86
2023/03/29 09:26:02;;;;;;;;;;;;;;;;;;4983778;28;94710;-83
2023/03/29 09:28:49;;;;;;;5.32;2.08;;;;;;;;;;4992567;28;92031;-84
2023/03/29 09:31:25;;;;;;;6.07;1.98;;;;;;;;;;5013562;28;94697;-85
2023/03/29 09:33:56;;;;;;;5.35;2.30;;;;;;;;;;4977052;28;92403;-85
2023/03/29 09:36:35;;;;;;;4.43;2.10;;;;;;;;;;4976292;28;94887;-86
2023/03/29 09:39:02;;;;;;;5.70;2.10;;;;;;;;;;4976799;28;95394;-81
2023/03/29 09:41:35;;;;;;;4.45;1.92;;;;;;;;;;4958523;28;92484;-82
2023/03/29 09:44:05;;;;;;;3.95;1.80;;;;;;;;;;4990537;28;93352;-82
2023/03/29 09:46:40;;;;;;;4.25;2.00;;;;;;;;;;4957363;28;99660;-82
2023/03/29 09:49:11;;;;;;;4.30;2.10;;;;;;;;;;4957293;28;92641;-82
2023/03/29 09:51:38;;;;;;;4.32;2.05;;;;;;;;;;4995001;28;95013;-82
2023/03/29 09:54:05;;;;;;;6.38;2.40;;;;;;;;;;4976493;28;93957;-82
2023/03/29 09:56:51;;;;;;;5.43;1.90;;;;;;;;;;4972092;28;96337;-82
2023/03/29 09:59:19;;;;;;;4.68;2.28;;;;;;;;;;4976806;28;95552;-82
2023/03/29 10:01:46;;;;;;;3.75;1.70;;;;;;;;;;4986723;28;92562;-82
2023/03/29 10:04:15;;;;;;;4.28;2.05;;;;;;;;;;4991769;28;96190;-82
2023/03/29 10:06:50;;;;;;;4.60;2.00;;;;;;;;;;4971863;28;95739;-82
2023/03/29 10:09:22;;;;;;;5.05;2.20;;;;;;;;;;4971195;28;92127;-82
2023/03/29 10:12:01;;;;;;;4.30;1.90;;;;;;;;;;4966097;28;92439;-82
2023/03/29 10:14:30;;;;;;;6.55;2.50;;;;;;;;;;4970975;28;93623;-82
2023/03/29 10:16:57;;;;;;;4.32;2.00;;;;;;;;;;4975730;28;94909;-82
2023/03/29 10:19:29;;;;;;;3.63;1.70;;;;;;;;;;4974799;28;92804;-81
2023/03/29 10:21:57;;;;;;;4.18;1.83;;;;;;;;;;4977542;28;92537;-82
2023/03/29 10:24:25;;;;;;;5.50;1.95;;;;;;;;;;4976986;28;92434;-81
2023/03/29 10:26:54;;;;;;;5.72;2.30;;;;;;;;;;4977371;28;93229;-82
2023/03/29 10:29:22;;;;;;;5.57;2.00;;;;;;;;;;4970894;28;92465;-82
2023/03/29 10:31:49;;;;;;;4.60;2.42;;;;;;;;;;4965297;28;92567;-83
2023/03/29 10:34:16;;;;;;;4.72;2.15;;;;;;;;;;4978764;28;92281;-82
2023/03/29 10:36:43;;;;;;;;;;;;;;;;;;4975760;28;93114;-82
2023/03/29 10:39:13;;;;;;;6.35;2.65;;;;;;;;;;4994093;28;116659;-84
2023/03/29 10:41:39;;;;;;;5.53;2.58;;;;;;;;;;4972845;28;95196;-82
2023/03/29 10:44:22;;;;;;;6.95;2.60;;;;;;;;;;4959668;28;94560;-82
2023/03/29 10:46:49;;;;;;;6.78;2.88;;;;;;;;;;4969037;28;98239;-82
2023/03/29 10:49:19;;;;;;;6.25;2.60;;;;;;;;;;4999845;28;93468;-82
2023/03/29 10:51:48;;;;;;;8.43;3.00;;;;;;;;;;4974559;28;92375;-86
2023/03/29 10:54:19;;;;;;;8.55;3.15;;;;;;;;;;4978881;28;93218;-82
2023/03/29 10:56:52;;;;;;;8.32;3.38;;;;;;;;;;5005567;28;93440;-82
2023/03/29 10:59:26;;;;;;;9.10;3.95;;;;;;;;;;4976325;28;92471;-81
2023/03/29 11:02:11;;;;;;;8.48;2.92;;;;;;;;;;5012537;28;93111;-82
2023/03/29 11:04:46;;;;;;;6.47;2.85;;;;;;;;;;4974379;28;96739;-82
2023/03/29 11:07:31;;;;;;;11.52;3.78;;;;;;;;;;5007226;28;95403;-82
2023/03/29 11:10:19;;;;;;;7.63;3.30;;;;;;;;;;4980058;28;92130;-82
2023/03/29 11:12:59;;;;;;;6.55;3.05;;;;;;;;;;4942329;28;97223;-81
2023/03/29 11:15:46;;;;;;;7.97;3.65;;;;;;;;;;4966150;28;92566;-82
2023/03/29 11:18:22;;;;;;;7.68;3.13;;;;;;;;;;4965477;28;92437;-82
2023/03/29 11:21:20;;;;;;;6.65;3.13;;;;;;;;;;4974978;28;92555;-82
2023/03/29 11:24:05;;;;;;;7.85;3.22;;;;;;;;;;4928818;28;92681;-83
2023/03/29 11:26:39;;;;;;;7.60;3.20;;;;;;;;;;4956306;28;91817;-84
2023/03/29 11:29:07;;;;;;;7.05;2.95;;;;;;;;;;4950223;28;93535;-83
2023/03/29 11:31:36;;;;;;;8.57;3.42;;;;;;;;;;4947245;28;92233;-83
2023/03/29 11:34:11;;;;;;;8.25;3.13;;;;;;;;;;4957772;28;94683;-81
2023/03/29 11:36:52;;;;;;;8.55;2.60;;;;;;;;;;4944499;28;97260;-84
2023/03/29 11:39:19;;;;;;;7.25;2.80;;;;;;;;;;4938456;28;92486;-82
2023/03/29 11:41:48;;;;;;;7.13;2.78;;;;;;;;;;4954733;28;92885;-82
2023/03/29 11:44:20;;;;;;;5.60;2.60;;;;;;;;;;4944072;28;92530;-82
2023/03/29 11:46:47;;;;;;;6.05;2.47;;;;;;;;;;4945865;28;92481;-82
2023/03/29 11:49:18;;;;;;;6.63;2.83;;;;;;;;;;4949560;28;93474;-84
2023/03/29 11:51:47;;;;;;;8.00;2.92;;;;;;;;;;4987494;28;91326;-83
2023/03/29 11:54:20;;;;;;;6.30;2.45;;;;;;;;;;4935892;28;93807;-82
2023/03/29 11:56:51;;;;;;;7.68;2.70;;;;;;;;;;4955250;28;92457;-83
2023/03/29 11:59:22;;;;;;;6.22;2.80;;;;;;;;;;4952205;28;95347;-83
2023/03/29 12:01:51;;;;;;;7.93;3.03;;;;;;;;;;4957587;28;94666;-83
2023/03/29 12:04:24;;;;;;;5.97;2.55;;;;;;;;;;4950044;28;92944;-81
2023/03/29 12:06:51;;;;;;;;;;;;;;;;;;4959906;28;92547;-82
2023/03/29 12:09:36;;;;;;;6.68;2.88;;;;;;;;;;4981060;28;116797;-82
2023/03/29 12:12:07;;;;;;;6.53;3.15;;;;;;;;;;4958567;28;92629;-82
2023/03/29 12:14:41;;;;;;;6.32;3.28;;;;;;;;;;4956131;28;93087;-83
2023/03/29 12:17:10;;;;;;;6.45;3.13;;;;;;;;;;4957898;28;92089;-82
2023/03/29 12:19:40;;;;;;;6.45;3.00;;;;;;;;;;4959782;28;92394;-82
2023/03/29 12:22:09;;;;;;;6.88;3.20;;;;;;;;;;4957505;28;92466;-82
2023/03/29 12:24:41;;;;;;;6.88;3.33;;;;;;;;;;4965300;28;100018;-83
2023/03/29 12:27:26;;;;;;;7.22;3.42;;;;;;;;;;4958325;28;93048;-81
2023/03/29 12:30:05;;;;;;;7.60;3.53;;;;;;;;;;4955152;28;93026;-82
2023/03/29 12:32:37;;;;;;;9.02;3.28;;;;;;;;;;4961533;28;94719;-82
2023/03/29 12:35:54;;;;;;;8.48;3.30;;;;;;;;;;4915367;28;92894;-82
2023/03/29 12:38:41;;;;;;;6.30;3.03;;;;;;;;;;4960849;28;97286;-83
2023/03/29 12:41:27;;;;;;;6.88;3.22;;;;;;;;;;4984179;28;92236;-83
2023/03/29 12:44:02;;;;;;;7.75;3.33;;;;;;;;;;4987132;28;92169;-82
2023/03/29 12:46:45;;;;;;;7.43;2.95;;;;;;;;;;4975922;28;97071;-82
2023/03/29 12:49:30;;;;;;;7.90;3.20;;;;;;;;;;5020516;28;92480;-82
2023/03/29 12:51:57;;;;;;;;;;;;;;;;;;4970658;28;95082;-82
2023/03/29 12:54:26;;;;;;;6.60;3.30;;;;;;;;;;5019481;28;92822;-82
2023/03/29 12:57:01;;;;;;;7.13;3.30;;;;;;;;;;4981047;28;92671;-83
2023/03/29 12:59:47;;;;;;;7.25;3.28;;;;;;;;;;4978399;28;92755;-82
2023/03/29 13:02:13;;;;;;;6.13;3.03;;;;;;;;;;4971068;28;92349;-82
2023/03/29 13:04:56;;;;;;;8.00;3.28;;;;;;;;;;4972695;28;92439;-82
2023/03/29 13:07:25;;;;;;;6.55;3.22;;;;;;;;;;4978224;28;93743;-82
2023/03/29 13:09:53;;;;;;;6.88;3.75;;;;;;;;;;4982416;28;91435;-82
2023/03/29 13:12:46;;;;;;;7.03;3.03;;;;;;;;;;4973063;28;92558;-83
2023/03/29 13:15:13;;;;;;;6.90;2.78;;;;;;;;;;4971648;28;92210;-82
2023/03/29 13:18:05;;;;;;;7.43;3.42;;;;;;;;;;4992696;28;94908;-82
2023/03/29 13:20:45;;;;;;;7.13;3.40;;;;;;;;;;4977254;28;95138;-82
2023/03/29 13:23:31;;;;;;;6.47;3.50;;;;;;;;;;4976963;28;92123;-82
2023/03/29 13:26:11;;;;;;;5.90;2.90;;;;;;;;;;4978920;28;94329;-82
2023/03/29 13:28:57;;;;;;;7.13;3.00;;;;;;;;;;4968850;28;97324;-82
2023/03/29 13:31:23;;;;;;;;;;;;;;;;;;4973724;28;93476;-82
2023/03/29 13:33:59;;;;;;;8.63;3.70;;;;;;;;;;4973781;28;105477;-83
2023/03/29 13:36:31;;;;;;;7.70;3.50;;;;;;;;;;4994440;28;92865;-82
2023/03/29 13:39:01;;;;;;;7.88;3.72;;;;;;;;;;4977916;28;92520;-83
2023/03/29 13:41:37;;;;;;;6.40;3.33;;;;;;;;;;4980721;28;94054;-82
2023/03/29 13:44:04;;;;;;;6.57;3.10;;;;;;;;;;4982863;28;95211;-82
2023/03/29 13:46:30;;;;;;;7.18;3.45;;;;;;;;;;4967534;28;96123;-82
2023/03/29 13:49:01;;;;;;;6.28;3.40;;;;;;;;;;4976444;28;92375;-83
2023/03/29 13:51:39;;;;;;;6.03;3.05;;;;;;;;;;4977341;28;92232;-83
2023/03/29 13:54:20;;;;;;;6.82;3.22;;;;;;;;;;4978122;28;92792;-82
2023/03/29 13:56:55;;;;;;;7.10;3.47;;;;;;;;;;4975724;28;98563;-83
2023/03/29 13:59:41;;;;;;;5.63;2.85;;;;;;;;;;4964435;28;92479;-83
2023/03/29 14:02:12;;;;;;;7.13;3.63;;;;;;;;;;4978391;28;92866;-83
2023/03/29 14:04:41;;;;;;;7.18;3.33;;;;;;;;;;4979670;28;97646;-83
2023/03/29 14:07:11;;;;;;;6.50;3.38;;;;;;;;;;4975200;28;93836;-83
2023/03/29 14:09:40;;;;;;;5.97;3.13;;;;;;;;;;4974316;28;95585;-83
2023/03/29 14:12:09;;;;;;;6.45;3.45;;;;;;;;;;4975573;28;92356;-83
2023/03/29 14:14:37;;;;;;;7.05;3.50;;;;;;;;;;4976612;28;97010;-83
2023/03/29 14:17:19;;;;;;;7.28;3.40;;;;;;;;;;4977160;28;92403;-83
2023/03/29 14:19:46;;;;;;;8.10;3.72;;;;;;;;;;5005144;28;92733;-81
2023/03/29 14:22:14;;;;;;;6.32;3.15;;;;;;;;;;4974531;28;92312;-81
2023/03/29 14:24:46;;;;;;;6.47;3.60;;;;;;;;;;4978646;28;92658;-81
2023/03/29 14:27:14;;;;;;;7.20;3.72;;;;;;;;;;5010650;28;91841;-82
2023/03/29 14:29:43;;;;;;;7.18;3.78;;;;;;;;;;4963610;28;92833;-81
2023/03/29 14:32:16;;;;;;;6.68;3.15;;;;;;;;;;4967091;28;92527;-81
2023/03/29 14:34:43;;;;;;;;;;;;;;;;;;4965951;28;96677;-83
2023/03/29 14:37:10;;;;;;;6.00;3.30;;;;;;;;;;4973369;28;112809;-82
2023/03/29 14:39:38;;;;;;;6.10;2.90;;;;;;;;;;4976254;28;92130;-83
2023/03/29 14:42:10;;;;;;;5.60;3.15;;;;;;;;;;4975747;28;95116;-84
2023/03/29 14:44:37;;;;;;;6.25;3.28;;;;;;;;;;4958342;28;97158;-82
2023/03/29 14:47:03;;;;;;;6.45;3.25;;;;;;;;;;4968558;28;93633;-82
2023/03/29 14:49:30;;;;;;;6.45;3.20;;;;;;;;;;4961906;28;92648;-85
2023/03/29 14:51:57;;;;;;;6.57;3.30;;;;;;;;;;4959545;28;91765;-82
2023/03/29 14:54:31;;;;;;;7.00;3.20;;;;;;;;;;4971753;28;92466;-81
2023/03/29 14:56:58;;;;;;;5.82;3.03;;;;;;;;;;4971768;28;93475;-83
2023/03/29 14:59:35;;;;;;;6.45;3.50;;;;;;;;;;4968633;28;94867;-83
2023/03/29 15:02:02;;;;;;;5.63;2.97;;;;;;;;;;4965034;28;95169;-84
2023/03/29 15:04:36;;;;;;;6.35;3.30;;;;;;;;;;4971017;28;95407;-84
2023/03/29 15:07:03;;;;;;;6.50;3.55;;;;;;;;;;4970255;28;92756;-85
2023/03/29 15:09:32;;;;;;;5.80;2.75;;;;;;;;;;4965397;28;93893;-84
2023/03/29 15:12:00;;;;;;;7.25;3.60;;;;;;;;;;4963663;28;93289;-85
2023/03/29 15:14:29;;;;;;;5.95;3.03;;;;;;;;;;4978427;28;93130;-85
2023/03/29 15:17:00;;;;;;;6.63;3.20;;;;;;;;;;4945951;28;93738;-79
2023/03/29 15:19:27;;;;;;;5.82;2.83;;;;;;;;;;4967207;28;92806;-81